sensor_id;sensor_type;location;lat;lon;timestamp;P1;durP1;ratioP1;P2;durP2;ratioP2
8411;SDS011;4243;49.296;11.348;2023-07-08T00:00:53;123.17;;;8.17;;
8411;SDS011;4243;49.296;11.348;2023-07-08T00:03:21;123.40;;;8.00;;
8411;SDS011;4243;49.296;11.348;2023-07-08T00:05:50;123.27;;;7.97;;
8411;SDS011;4243;49.296;11.348;2023-07-08T00:08:22;122.90;;;7.73;;
8411;SDS011;4243;49.296;11.348;2023-07-08T00:10:50;122.60;;;7.10;;
8411;SDS011;4243;49.296;11.348;2023-07-08T00:13:17;121.67;;;6.53;;
8411;SDS011;4243;49.296;11.348;2023-07-08T00:15:45;122.27;;;6.60;;
8411;SDS011;4243;49.296;11.348;2023-07-08T00:18:15;122.87;;;7.00;;
8411;SDS011;4243;49.296;11.348;2023-07-08T00:20:45;123.40;;;7.93;;
8411;SDS011;4243;49.296;11.348;2023-07-08T00:23:16;122.77;;;7.27;;
8411;SDS011;4243;49.296;11.348;2023-07-08T00:25:47;123.47;;;8.60;;
8411;SDS011;4243;49.296;11.348;2023-07-08T00:28:16;123.50;;;8.90;;
8411;SDS011;4243;49.296;11.348;2023-07-08T00:30:47;123.67;;;9.03;;
8411;SDS011;4243;49.296;11.348;2023-07-08T00:33:15;123.80;;;10.47;;
8411;SDS011;4243;49.296;11.348;2023-07-08T00:35:44;123.47;;;9.83;;
8411;SDS011;4243;49.296;11.348;2023-07-08T00:38:21;122.83;;;8.60;;
8411;SDS011;4243;49.296;11.348;2023-07-08T00:43:46;120.47;;;5.17;;
8411;SDS011;4243;49.296;11.348;2023-07-08T00:52:21;119.60;;;4.40;;
8411;SDS011;4243;49.296;11.348;2023-07-08T00:54:56;119.40;;;4.30;;
8411;SDS011;4243;49.296;11.348;2023-07-08T00:57:33;119.30;;;4.33;;
8411;SDS011;4243;49.296;11.348;2023-07-08T01:00:12;119.43;;;5.17;;
8411;SDS011;4243;49.296;11.348;2023-07-08T01:02:46;119.67;;;5.40;;
8411;SDS011;4243;49.296;11.348;2023-07-08T01:05:23;119.97;;;5.60;;
8411;SDS011;4243;49.296;11.348;2023-07-08T01:07:56;120.30;;;5.63;;
8411;SDS011;4243;49.296;11.348;2023-07-08T01:10:32;119.87;;;5.30;;
8411;SDS011;4243;49.296;11.348;2023-07-08T01:13:10;120.20;;;5.80;;
8411;SDS011;4243;49.296;11.348;2023-07-08T01:15:42;120.43;;;5.80;;
8411;SDS011;4243;49.296;11.348;2023-07-08T01:18:15;120.17;;;5.63;;
8411;SDS011;4243;49.296;11.348;2023-07-08T01:20:51;120.40;;;5.47;;
8411;SDS011;4243;49.296;11.348;2023-07-08T01:23:22;120.00;;;5.43;;
8411;SDS011;4243;49.296;11.348;2023-07-08T01:25:50;120.30;;;5.93;;
8411;SDS011;4243;49.296;11.348;2023-07-08T01:28:18;120.77;;;5.80;;
8411;SDS011;4243;49.296;11.348;2023-07-08T01:30:47;120.07;;;5.57;;
8411;SDS011;4243;49.296;11.348;2023-07-08T01:33:18;120.40;;;6.10;;
8411;SDS011;4243;49.296;11.348;2023-07-08T01:35:51;120.63;;;5.87;;
8411;SDS011;4243;49.296;11.348;2023-07-08T01:38:21;120.07;;;6.00;;
8411;SDS011;4243;49.296;11.348;2023-07-08T01:40:54;120.30;;;5.97;;
8411;SDS011;4243;49.296;11.348;2023-07-08T01:43:24;119.83;;;5.50;;
8411;SDS011;4243;49.296;11.348;2023-07-08T01:45:52;120.57;;;6.00;;
8411;SDS011;4243;49.296;11.348;2023-07-08T01:48:21;119.87;;;5.60;;
8411;SDS011;4243;49.296;11.348;2023-07-08T01:50:52;120.47;;;6.10;;
8411;SDS011;4243;49.296;11.348;2023-07-08T01:53:31;120.10;;;6.27;;
8411;SDS011;4243;49.296;11.348;2023-07-08T01:56:09;119.77;;;6.03;;
8411;SDS011;4243;49.296;11.348;2023-07-08T01:58:39;120.23;;;5.53;;
8411;SDS011;4243;49.296;11.348;2023-07-08T02:01:08;120.20;;;6.13;;
8411;SDS011;4243;49.296;11.348;2023-07-08T02:03:36;120.17;;;6.00;;
8411;SDS011;4243;49.296;11.348;2023-07-08T02:06:04;119.67;;;5.40;;
8411;SDS011;4243;49.296;11.348;2023-07-08T02:08:33;120.10;;;5.90;;
8411;SDS011;4243;49.296;11.348;2023-07-08T02:11:01;119.60;;;5.13;;
8411;SDS011;4243;49.296;11.348;2023-07-08T02:13:29;120.10;;;5.00;;
8411;SDS011;4243;49.296;11.348;2023-07-08T02:15:56;120.13;;;5.10;;
8411;SDS011;4243;49.296;11.348;2023-07-08T02:18:26;119.27;;;4.87;;
8411;SDS011;4243;49.296;11.348;2023-07-08T02:20:53;119.43;;;4.63;;
8411;SDS011;4243;49.296;11.348;2023-07-08T02:23:21;119.37;;;4.43;;
8411;SDS011;4243;49.296;11.348;2023-07-08T02:25:50;119.50;;;4.27;;
8411;SDS011;4243;49.296;11.348;2023-07-08T02:28:22;119.23;;;4.17;;
8411;SDS011;4243;49.296;11.348;2023-07-08T02:30:49;119.90;;;4.37;;
8411;SDS011;4243;49.296;11.348;2023-07-08T02:33:18;119.20;;;3.90;;
8411;SDS011;4243;49.296;11.348;2023-07-08T02:35:46;119.40;;;4.70;;
8411;SDS011;4243;49.296;11.348;2023-07-08T02:38:13;119.83;;;5.33;;
8411;SDS011;4243;49.296;11.348;2023-07-08T02:40:40;120.67;;;5.70;;
8411;SDS011;4243;49.296;11.348;2023-07-08T02:43:09;120.47;;;6.07;;
8411;SDS011;4243;49.296;11.348;2023-07-08T02:45:37;120.37;;;5.60;;
8411;SDS011;4243;49.296;11.348;2023-07-08T02:48:04;120.60;;;5.80;;
8411;SDS011;4243;49.296;11.348;2023-07-08T02:50:32;119.90;;;4.63;;
8411;SDS011;4243;49.296;11.348;2023-07-08T02:53:00;120.00;;;4.63;;
8411;SDS011;4243;49.296;11.348;2023-07-08T02:55:27;119.67;;;4.27;;
8411;SDS011;4243;49.296;11.348;2023-07-08T02:57:54;119.87;;;4.00;;
8411;SDS011;4243;49.296;11.348;2023-07-08T03:00:22;120.00;;;4.03;;
8411;SDS011;4243;49.296;11.348;2023-07-08T03:02:49;119.37;;;3.80;;
8411;SDS011;4243;49.296;11.348;2023-07-08T03:05:16;119.63;;;3.90;;
8411;SDS011;4243;49.296;11.348;2023-07-08T03:07:44;119.90;;;3.97;;
8411;SDS011;4243;49.296;11.348;2023-07-08T03:10:11;120.10;;;4.03;;
8411;SDS011;4243;49.296;11.348;2023-07-08T03:12:38;119.40;;;3.60;;
8411;SDS011;4243;49.296;11.348;2023-07-08T03:15:06;119.80;;;4.03;;
8411;SDS011;4243;49.296;11.348;2023-07-08T03:17:34;120.10;;;4.37;;
8411;SDS011;4243;49.296;11.348;2023-07-08T03:20:01;119.97;;;4.17;;
8411;SDS011;4243;49.296;11.348;2023-07-08T03:22:31;119.93;;;4.30;;
8411;SDS011;4243;49.296;11.348;2023-07-08T03:24:59;119.57;;;4.27;;
8411;SDS011;4243;49.296;11.348;2023-07-08T03:27:26;120.00;;;4.30;;
8411;SDS011;4243;49.296;11.348;2023-07-08T03:29:53;120.07;;;4.40;;
8411;SDS011;4243;49.296;11.348;2023-07-08T03:32:21;120.30;;;4.30;;
8411;SDS011;4243;49.296;11.348;2023-07-08T03:34:49;119.63;;;4.30;;
8411;SDS011;4243;49.296;11.348;2023-07-08T03:37:19;120.03;;;4.40;;
8411;SDS011;4243;49.296;11.348;2023-07-08T03:39:46;119.60;;;4.40;;
8411;SDS011;4243;49.296;11.348;2023-07-08T03:42:13;119.97;;;4.60;;
8411;SDS011;4243;49.296;11.348;2023-07-08T03:44:41;120.20;;;4.60;;
8411;SDS011;4243;49.296;11.348;2023-07-08T03:47:09;120.00;;;4.70;;
8411;SDS011;4243;49.296;11.348;2023-07-08T03:49:36;119.67;;;4.60;;
8411;SDS011;4243;49.296;11.348;2023-07-08T03:52:04;120.00;;;4.53;;
8411;SDS011;4243;49.296;11.348;2023-07-08T03:54:34;120.20;;;4.77;;
8411;SDS011;4243;49.296;11.348;2023-07-08T03:57:01;120.27;;;5.00;;
8411;SDS011;4243;49.296;11.348;2023-07-08T03:59:28;120.30;;;4.90;;
8411;SDS011;4243;49.296;11.348;2023-07-08T04:01:57;120.00;;;4.70;;
8411;SDS011;4243;49.296;11.348;2023-07-08T04:04:26;120.50;;;4.73;;
8411;SDS011;4243;49.296;11.348;2023-07-08T04:06:53;120.40;;;4.97;;
8411;SDS011;4243;49.296;11.348;2023-07-08T04:09:21;120.13;;;4.67;;
8411;SDS011;4243;49.296;11.348;2023-07-08T04:11:48;119.80;;;4.50;;
8411;SDS011;4243;49.296;11.348;2023-07-08T04:14:16;120.00;;;4.57;;
8411;SDS011;4243;49.296;11.348;2023-07-08T04:16:53;120.00;;;4.40;;
8411;SDS011;4243;49.296;11.348;2023-07-08T04:19:25;119.40;;;4.37;;
8411;SDS011;4243;49.296;11.348;2023-07-08T04:21:53;120.07;;;4.50;;
8411;SDS011;4243;49.296;11.348;2023-07-08T04:24:21;119.17;;;4.40;;
8411;SDS011;4243;49.296;11.348;2023-07-08T04:26:48;119.60;;;4.13;;
8411;SDS011;4243;49.296;11.348;2023-07-08T04:29:17;119.47;;;4.50;;
8411;SDS011;4243;49.296;11.348;2023-07-08T04:31:48;119.63;;;4.37;;
8411;SDS011;4243;49.296;11.348;2023-07-08T04:34:15;119.40;;;4.20;;
8411;SDS011;4243;49.296;11.348;2023-07-08T04:36:43;119.50;;;4.47;;
8411;SDS011;4243;49.296;11.348;2023-07-08T04:39:11;119.27;;;4.27;;
8411;SDS011;4243;49.296;11.348;2023-07-08T04:41:39;119.30;;;4.43;;
8411;SDS011;4243;49.296;11.348;2023-07-08T04:44:08;119.20;;;4.70;;
8411;SDS011;4243;49.296;11.348;2023-07-08T04:46:40;118.67;;;5.00;;
8411;SDS011;4243;49.296;11.348;2023-07-08T04:49:15;119.27;;;5.23;;
8411;SDS011;4243;49.296;11.348;2023-07-08T04:51:42;119.50;;;5.20;;
8411;SDS011;4243;49.296;11.348;2023-07-08T04:54:10;119.47;;;5.83;;
8411;SDS011;4243;49.296;11.348;2023-07-08T04:56:42;119.47;;;5.37;;
8411;SDS011;4243;49.296;11.348;2023-07-08T04:59:15;119.50;;;5.50;;
8411;SDS011;4243;49.296;11.348;2023-07-08T05:01:46;119.60;;;5.67;;
8411;SDS011;4243;49.296;11.348;2023-07-08T05:04:17;119.63;;;6.37;;
8411;SDS011;4243;49.296;11.348;2023-07-08T05:06:48;119.90;;;6.53;;
8411;SDS011;4243;49.296;11.348;2023-07-08T05:09:16;119.93;;;6.37;;
8411;SDS011;4243;49.296;11.348;2023-07-08T05:11:44;120.03;;;6.40;;
8411;SDS011;4243;49.296;11.348;2023-07-08T05:14:12;119.27;;;6.40;;
8411;SDS011;4243;49.296;11.348;2023-07-08T05:16:40;119.87;;;6.93;;
8411;SDS011;4243;49.296;11.348;2023-07-08T05:19:07;120.30;;;7.87;;
8411;SDS011;4243;49.296;11.348;2023-07-08T05:21:35;119.57;;;8.37;;
8411;SDS011;4243;49.296;11.348;2023-07-08T05:24:04;120.07;;;8.30;;
8411;SDS011;4243;49.296;11.348;2023-07-08T05:26:33;120.37;;;8.80;;
8411;SDS011;4243;49.296;11.348;2023-07-08T05:29:01;120.30;;;7.43;;
8411;SDS011;4243;49.296;11.348;2023-07-08T05:31:28;118.57;;;6.73;;
8411;SDS011;4243;49.296;11.348;2023-07-08T05:33:58;119.10;;;5.83;;
8411;SDS011;4243;49.296;11.348;2023-07-08T05:36:26;118.90;;;6.40;;
8411;SDS011;4243;49.296;11.348;2023-07-08T05:38:53;117.50;;;6.27;;
8411;SDS011;4243;49.296;11.348;2023-07-08T05:41:21;117.07;;;6.53;;
8411;SDS011;4243;49.296;11.348;2023-07-08T05:43:48;118.10;;;5.70;;
8411;SDS011;4243;49.296;11.348;2023-07-08T05:46:15;117.57;;;5.80;;
8411;SDS011;4243;49.296;11.348;2023-07-08T05:48:43;118.47;;;6.00;;
8411;SDS011;4243;49.296;11.348;2023-07-08T05:51:10;118.87;;;7.77;;
8411;SDS011;4243;49.296;11.348;2023-07-08T05:53:37;119.77;;;9.90;;
8411;SDS011;4243;49.296;11.348;2023-07-08T05:56:05;120.30;;;10.17;;
8411;SDS011;4243;49.296;11.348;2023-07-08T05:58:32;120.07;;;11.77;;
8411;SDS011;4243;49.296;11.348;2023-07-08T06:01:00;121.90;;;14.07;;
8411;SDS011;4243;49.296;11.348;2023-07-08T06:03:28;120.07;;;14.23;;
8411;SDS011;4243;49.296;11.348;2023-07-08T06:05:56;123.17;;;16.00;;
8411;SDS011;4243;49.296;11.348;2023-07-08T06:08:23;121.10;;;13.63;;
8411;SDS011;4243;49.296;11.348;2023-07-08T06:10:50;118.70;;;12.17;;
8411;SDS011;4243;49.296;11.348;2023-07-08T06:13:18;119.20;;;10.60;;
8411;SDS011;4243;49.296;11.348;2023-07-08T06:15:45;118.80;;;10.90;;
8411;SDS011;4243;49.296;11.348;2023-07-08T06:18:12;117.90;;;11.00;;
8411;SDS011;4243;49.296;11.348;2023-07-08T06:20:40;118.20;;;11.30;;
8411;SDS011;4243;49.296;11.348;2023-07-08T06:23:07;118.97;;;12.30;;
8411;SDS011;4243;49.296;11.348;2023-07-08T06:25:34;118.93;;;11.60;;
8411;SDS011;4243;49.296;11.348;2023-07-08T06:28:01;117.97;;;11.50;;
8411;SDS011;4243;49.296;11.348;2023-07-08T06:30:28;118.10;;;9.33;;
8411;SDS011;4243;49.296;11.348;2023-07-08T06:32:56;117.27;;;8.33;;
8411;SDS011;4243;49.296;11.348;2023-07-08T06:35:26;116.67;;;7.60;;
8411;SDS011;4243;49.296;11.348;2023-07-08T06:37:53;116.90;;;7.80;;
8411;SDS011;4243;49.296;11.348;2023-07-08T06:40:21;116.67;;;7.50;;
8411;SDS011;4243;49.296;11.348;2023-07-08T06:42:48;116.20;;;7.73;;
8411;SDS011;4243;49.296;11.348;2023-07-08T06:45:23;115.37;;;6.70;;
8411;SDS011;4243;49.296;11.348;2023-07-08T06:47:50;114.53;;;5.40;;
8411;SDS011;4243;49.296;11.348;2023-07-08T06:50:18;114.53;;;5.03;;
8411;SDS011;4243;49.296;11.348;2023-07-08T06:52:45;114.23;;;4.53;;
8411;SDS011;4243;49.296;11.348;2023-07-08T06:55:13;114.00;;;4.07;;
8411;SDS011;4243;49.296;11.348;2023-07-08T06:57:40;113.80;;;4.07;;
8411;SDS011;4243;49.296;11.348;2023-07-08T07:00:10;113.97;;;4.00;;
8411;SDS011;4243;49.296;11.348;2023-07-08T07:02:45;113.90;;;3.63;;
8411;SDS011;4243;49.296;11.348;2023-07-08T07:05:12;114.07;;;3.87;;
8411;SDS011;4243;49.296;11.348;2023-07-08T07:07:40;113.40;;;3.47;;
8411;SDS011;4243;49.296;11.348;2023-07-08T07:10:08;114.20;;;3.90;;
8411;SDS011;4243;49.296;11.348;2023-07-08T07:12:36;113.77;;;3.77;;
8411;SDS011;4243;49.296;11.348;2023-07-08T07:15:08;113.50;;;3.83;;
8411;SDS011;4243;49.296;11.348;2023-07-08T07:17:35;113.40;;;4.20;;
8411;SDS011;4243;49.296;11.348;2023-07-08T07:20:03;113.60;;;5.00;;
8411;SDS011;4243;49.296;11.348;2023-07-08T07:22:31;114.53;;;6.63;;
8411;SDS011;4243;49.296;11.348;2023-07-08T07:24:59;115.63;;;8.97;;
8411;SDS011;4243;49.296;11.348;2023-07-08T07:27:27;115.07;;;8.60;;
8411;SDS011;4243;49.296;11.348;2023-07-08T07:29:54;115.50;;;8.97;;
8411;SDS011;4243;49.296;11.348;2023-07-08T07:32:22;113.97;;;7.20;;
8411;SDS011;4243;49.296;11.348;2023-07-08T07:34:50;113.90;;;7.40;;
8411;SDS011;4243;49.296;11.348;2023-07-08T07:37:19;114.97;;;9.57;;
8411;SDS011;4243;49.296;11.348;2023-07-08T07:39:48;116.23;;;10.87;;
8411;SDS011;4243;49.296;11.348;2023-07-08T07:42:16;116.57;;;12.47;;
8411;SDS011;4243;49.296;11.348;2023-07-08T07:44:45;117.17;;;14.03;;
8411;SDS011;4243;49.296;11.348;2023-07-08T07:47:13;117.27;;;13.97;;
8411;SDS011;4243;49.296;11.348;2023-07-08T07:49:40;113.30;;;7.73;;
8411;SDS011;4243;49.296;11.348;2023-07-08T07:52:08;111.90;;;4.80;;
8411;SDS011;4243;49.296;11.348;2023-07-08T07:54:38;111.23;;;3.17;;
8411;SDS011;4243;49.296;11.348;2023-07-08T07:57:05;110.57;;;3.17;;
8411;SDS011;4243;49.296;11.348;2023-07-08T07:59:33;110.40;;;3.00;;
8411;SDS011;4243;49.296;11.348;2023-07-08T08:03:59;110.70;;;3.33;;
8411;SDS011;4243;49.296;11.348;2023-07-08T08:06:27;109.87;;;2.77;;
8411;SDS011;4243;49.296;11.348;2023-07-08T08:08:54;109.07;;;2.80;;
8411;SDS011;4243;49.296;11.348;2023-07-08T08:11:23;109.27;;;3.33;;
8411;SDS011;4243;49.296;11.348;2023-07-08T08:13:52;109.60;;;4.80;;
8411;SDS011;4243;49.296;11.348;2023-07-08T08:16:20;109.30;;;4.40;;
8411;SDS011;4243;49.296;11.348;2023-07-08T08:18:47;108.27;;;3.90;;
8411;SDS011;4243;49.296;11.348;2023-07-08T08:21:15;107.77;;;3.57;;
8411;SDS011;4243;49.296;11.348;2023-07-08T08:23:43;108.40;;;4.70;;
8411;SDS011;4243;49.296;11.348;2023-07-08T08:26:10;107.60;;;4.47;;
8411;SDS011;4243;49.296;11.348;2023-07-08T08:28:38;108.40;;;6.43;;
8411;SDS011;4243;49.296;11.348;2023-07-08T08:31:06;107.20;;;5.00;;
8411;SDS011;4243;49.296;11.348;2023-07-08T08:33:33;106.17;;;4.20;;
8411;SDS011;4243;49.296;11.348;2023-07-08T08:36:00;105.90;;;3.83;;
8411;SDS011;4243;49.296;11.348;2023-07-08T08:38:29;105.07;;;4.07;;
8411;SDS011;4243;49.296;11.348;2023-07-08T08:40:56;105.33;;;4.00;;
8411;SDS011;4243;49.296;11.348;2023-07-08T08:43:28;105.07;;;4.57;;
8411;SDS011;4243;49.296;11.348;2023-07-08T08:49:20;106.40;;;7.47;;
8411;SDS011;4243;49.296;11.348;2023-07-08T08:52:04;106.10;;;7.17;;
8411;SDS011;4243;49.296;11.348;2023-07-08T08:54:33;105.70;;;7.10;;
8411;SDS011;4243;49.296;11.348;2023-07-08T08:57:06;105.57;;;6.23;;
8411;SDS011;4243;49.296;11.348;2023-07-08T09:00:04;105.77;;;6.50;;
8411;SDS011;4243;49.296;11.348;2023-07-08T09:02:41;105.67;;;7.13;;
8411;SDS011;4243;49.296;11.348;2023-07-08T09:05:29;105.07;;;6.77;;
8411;SDS011;4243;49.296;11.348;2023-07-08T09:14:02;103.50;;;5.17;;
8411;SDS011;4243;49.296;11.348;2023-07-08T09:19:21;104.60;;;10.13;;
8411;SDS011;4243;49.296;11.348;2023-07-08T09:28:19;101.30;;;3.97;;
8411;SDS011;4243;49.296;11.348;2023-07-08T09:30:51;100.00;;;3.23;;
8411;SDS011;4243;49.296;11.348;2023-07-08T09:33:20;99.60;;;2.73;;
8411;SDS011;4243;49.296;11.348;2023-07-08T09:35:50;100.30;;;3.83;;
8411;SDS011;4243;49.296;11.348;2023-07-08T09:38:22;100.43;;;4.77;;
8411;SDS011;4243;49.296;11.348;2023-07-08T09:40:50;100.80;;;4.83;;
8411;SDS011;4243;49.296;11.348;2023-07-08T09:43:23;101.70;;;5.27;;
8411;SDS011;4243;49.296;11.348;2023-07-08T09:46:04;100.80;;;6.53;;
8411;SDS011;4243;49.296;11.348;2023-07-08T09:48:40;102.20;;;7.47;;
8411;SDS011;4243;49.296;11.348;2023-07-08T09:51:11;102.57;;;8.97;;
8411;SDS011;4243;49.296;11.348;2023-07-08T09:56:54;102.90;;;8.70;;
8411;SDS011;4243;49.296;11.348;2023-07-08T09:59:32;101.93;;;7.63;;
8411;SDS011;4243;49.296;11.348;2023-07-08T10:04:59;104.47;;;12.23;;
8411;SDS011;4243;49.296;11.348;2023-07-08T10:07:54;104.30;;;10.23;;
8411;SDS011;4243;49.296;11.348;2023-07-08T10:10:27;103.77;;;10.53;;
8411;SDS011;4243;49.296;11.348;2023-07-08T10:13:17;104.30;;;11.27;;
8411;SDS011;4243;49.296;11.348;2023-07-08T10:16:40;103.80;;;11.10;;
8411;SDS011;4243;49.296;11.348;2023-07-08T10:19:17;101.97;;;8.00;;
8411;SDS011;4243;49.296;11.348;2023-07-08T10:22:03;99.97;;;4.67;;
8411;SDS011;4243;49.296;11.348;2023-07-08T10:28:44;103.80;;;9.33;;
8411;SDS011;4243;49.296;11.348;2023-07-08T10:31:30;102.47;;;8.13;;
8411;SDS011;4243;49.296;11.348;2023-07-08T10:44:07;107.77;;;10.80;;
8411;SDS011;4243;49.296;11.348;2023-07-08T10:53:56;106.90;;;10.10;;
8411;SDS011;4243;49.296;11.348;2023-07-08T11:04:24;107.67;;;8.97;;
8411;SDS011;4243;49.296;11.348;2023-07-08T11:07:30;107.27;;;6.00;;
8411;SDS011;4243;49.296;11.348;2023-07-08T11:10:19;107.90;;;6.07;;
8411;SDS011;4243;49.296;11.348;2023-07-08T11:12:58;108.07;;;5.97;;
8411;SDS011;4243;49.296;11.348;2023-07-08T11:15:53;108.43;;;6.53;;
8411;SDS011;4243;49.296;11.348;2023-07-08T11:18:50;108.93;;;6.23;;
8411;SDS011;4243;49.296;11.348;2023-07-08T11:21:29;109.40;;;6.30;;
8411;SDS011;4243;49.296;11.348;2023-07-08T11:24:17;110.30;;;8.23;;
8411;SDS011;4243;49.296;11.348;2023-07-08T11:27:08;110.97;;;8.20;;
8411;SDS011;4243;49.296;11.348;2023-07-08T11:29:58;110.00;;;7.93;;
8411;SDS011;4243;49.296;11.348;2023-07-08T11:32:40;110.80;;;8.73;;
8411;SDS011;4243;49.296;11.348;2023-07-08T11:35:40;110.97;;;8.10;;
8411;SDS011;4243;49.296;11.348;2023-07-08T11:38:26;110.50;;;7.70;;
8411;SDS011;4243;49.296;11.348;2023-07-08T11:41:11;109.00;;;6.60;;
8411;SDS011;4243;49.296;11.348;2023-07-08T11:43:56;107.60;;;5.00;;
8411;SDS011;4243;49.296;11.348;2023-07-08T11:46:31;107.33;;;4.93;;
8411;SDS011;4243;49.296;11.348;2023-07-08T11:49:11;105.97;;;4.77;;
8411;SDS011;4243;49.296;11.348;2023-07-08T11:51:43;105.57;;;5.20;;
8411;SDS011;4243;49.296;11.348;2023-07-08T11:54:17;106.47;;;7.30;;
8411;SDS011;4243;49.296;11.348;2023-07-08T11:59:28;107.13;;;9.50;;
8411;SDS011;4243;49.296;11.348;2023-07-08T12:02:17;107.17;;;9.70;;
8411;SDS011;4243;49.296;11.348;2023-07-08T12:07:41;106.57;;;6.20;;
8411;SDS011;4243;49.296;11.348;2023-07-08T12:10:19;107.27;;;5.47;;
8411;SDS011;4243;49.296;11.348;2023-07-08T12:13:14;107.50;;;5.60;;
8411;SDS011;4243;49.296;11.348;2023-07-08T12:15:46;107.57;;;5.60;;
8411;SDS011;4243;49.296;11.348;2023-07-08T12:18:15;106.47;;;5.43;;
8411;SDS011;4243;49.296;11.348;2023-07-08T12:20:48;107.77;;;11.03;;
8411;SDS011;4243;49.296;11.348;2023-07-08T12:23:26;102.50;;;5.30;;
8411;SDS011;4243;49.296;11.348;2023-07-08T12:26:09;100.77;;;6.13;;
8411;SDS011;4243;49.296;11.348;2023-07-08T12:28:37;99.70;;;4.50;;
8411;SDS011;4243;49.296;11.348;2023-07-08T12:31:24;100.07;;;6.13;;
8411;SDS011;4243;49.296;11.348;2023-07-08T12:33:51;97.97;;;3.63;;
8411;SDS011;4243;49.296;11.348;2023-07-08T12:36:27;98.30;;;3.90;;
8411;SDS011;4243;49.296;11.348;2023-07-08T12:39:08;97.43;;;3.00;;
8411;SDS011;4243;49.296;11.348;2023-07-08T12:41:45;97.27;;;4.07;;
8411;SDS011;4243;49.296;11.348;2023-07-08T12:46:52;97.77;;;4.23;;
8411;SDS011;4243;49.296;11.348;2023-07-08T12:49:21;96.80;;;2.10;;
8411;SDS011;4243;49.296;11.348;2023-07-08T12:51:54;97.47;;;2.60;;
8411;SDS011;4243;49.296;11.348;2023-07-08T12:54:21;98.53;;;3.73;;
8411;SDS011;4243;49.296;11.348;2023-07-08T12:56:48;99.07;;;5.60;;
8411;SDS011;4243;49.296;11.348;2023-07-08T12:59:18;100.90;;;6.50;;
8411;SDS011;4243;49.296;11.348;2023-07-08T13:01:49;102.97;;;7.30;;
8411;SDS011;4243;49.296;11.348;2023-07-08T13:04:18;102.37;;;6.40;;
8411;SDS011;4243;49.296;11.348;2023-07-08T13:06:46;101.57;;;4.10;;
8411;SDS011;4243;49.296;11.348;2023-07-08T13:09:23;103.37;;;6.40;;
8411;SDS011;4243;49.296;11.348;2023-07-08T13:12:12;105.07;;;8.57;;
8411;SDS011;4243;49.296;11.348;2023-07-08T13:14:48;105.00;;;5.97;;
8411;SDS011;4243;49.296;11.348;2023-07-08T13:17:22;105.20;;;6.40;;
8411;SDS011;4243;49.296;11.348;2023-07-08T13:19:50;104.87;;;6.93;;
8411;SDS011;4243;49.296;11.348;2023-07-08T13:22:19;104.10;;;6.60;;
8411;SDS011;4243;49.296;11.348;2023-07-08T13:24:48;103.83;;;7.30;;
8411;SDS011;4243;49.296;11.348;2023-07-08T13:27:26;105.57;;;8.17;;
8411;SDS011;4243;49.296;11.348;2023-07-08T13:29:54;105.17;;;7.87;;
8411;SDS011;4243;49.296;11.348;2023-07-08T13:32:48;105.50;;;5.77;;
8411;SDS011;4243;49.296;11.348;2023-07-08T13:35:24;105.50;;;5.13;;
8411;SDS011;4243;49.296;11.348;2023-07-08T13:38:03;106.07;;;5.97;;
8411;SDS011;4243;49.296;11.348;2023-07-08T13:40:31;105.60;;;5.03;;
8411;SDS011;4243;49.296;11.348;2023-07-08T13:42:59;105.80;;;5.60;;
8411;SDS011;4243;49.296;11.348;2023-07-08T13:45:29;105.80;;;4.70;;
8411;SDS011;4243;49.296;11.348;2023-07-08T13:48:12;105.77;;;5.30;;
8411;SDS011;4243;49.296;11.348;2023-07-08T13:53:48;104.97;;;5.93;;
8411;SDS011;4243;49.296;11.348;2023-07-08T13:59:01;103.67;;;5.50;;
8411;SDS011;4243;49.296;11.348;2023-07-08T14:01:40;102.17;;;5.77;;
8411;SDS011;4243;49.296;11.348;2023-07-08T14:04:14;102.80;;;6.33;;
8411;SDS011;4243;49.296;11.348;2023-07-08T14:06:47;102.50;;;6.97;;
8411;SDS011;4243;49.296;11.348;2023-07-08T14:09:19;102.60;;;6.70;;
8411;SDS011;4243;49.296;11.348;2023-07-08T14:11:50;102.07;;;7.03;;
8411;SDS011;4243;49.296;11.348;2023-07-08T14:14:18;102.37;;;6.73;;
8411;SDS011;4243;49.296;11.348;2023-07-08T14:16:50;103.50;;;7.20;;
8411;SDS011;4243;49.296;11.348;2023-07-08T14:19:22;102.87;;;6.97;;
8411;SDS011;4243;49.296;11.348;2023-07-08T14:21:59;102.23;;;6.17;;
8411;SDS011;4243;49.296;11.348;2023-07-08T14:24:49;104.20;;;5.60;;
8411;SDS011;4243;49.296;11.348;2023-07-08T14:27:16;103.87;;;6.00;;
8411;SDS011;4243;49.296;11.348;2023-07-08T14:29:47;103.40;;;5.70;;
8411;SDS011;4243;49.296;11.348;2023-07-08T14:32:22;104.67;;;6.17;;
8411;SDS011;4243;49.296;11.348;2023-07-08T14:34:57;105.00;;;5.90;;
8411;SDS011;4243;49.296;11.348;2023-07-08T14:37:53;103.33;;;4.97;;
8411;SDS011;4243;49.296;11.348;2023-07-08T14:40:31;104.83;;;4.93;;
8411;SDS011;4243;49.296;11.348;2023-07-08T14:43:04;103.07;;;4.47;;
8411;SDS011;4243;49.296;11.348;2023-07-08T14:45:55;103.77;;;4.97;;
8411;SDS011;4243;49.296;11.348;2023-07-08T14:48:28;104.07;;;5.20;;
8411;SDS011;4243;49.296;11.348;2023-07-08T14:50:57;103.37;;;5.10;;
8411;SDS011;4243;49.296;11.348;2023-07-08T14:53:26;104.70;;;4.70;;
8411;SDS011;4243;49.296;11.348;2023-07-08T14:55:54;103.17;;;4.80;;
8411;SDS011;4243;49.296;11.348;2023-07-08T14:58:24;103.83;;;3.80;;
8411;SDS011;4243;49.296;11.348;2023-07-08T15:00:57;104.57;;;4.37;;
8411;SDS011;4243;49.296;11.348;2023-07-08T15:03:29;104.90;;;4.30;;
8411;SDS011;4243;49.296;11.348;2023-07-08T15:05:57;105.67;;;4.53;;
8411;SDS011;4243;49.296;11.348;2023-07-08T15:08:24;106.10;;;4.93;;
8411;SDS011;4243;49.296;11.348;2023-07-08T15:10:53;104.97;;;4.93;;
8411;SDS011;4243;49.296;11.348;2023-07-08T15:13:23;106.53;;;5.10;;
8411;SDS011;4243;49.296;11.348;2023-07-08T15:15:56;106.50;;;4.80;;
8411;SDS011;4243;49.296;11.348;2023-07-08T15:18:25;108.67;;;8.00;;
8411;SDS011;4243;49.296;11.348;2023-07-08T15:20:53;110.77;;;10.97;;
8411;SDS011;4243;49.296;11.348;2023-07-08T15:23:21;109.37;;;9.03;;
8411;SDS011;4243;49.296;11.348;2023-07-08T15:25:48;109.80;;;8.70;;
8411;SDS011;4243;49.296;11.348;2023-07-08T15:28:17;111.27;;;9.57;;
8411;SDS011;4243;49.296;11.348;2023-07-08T15:31:17;110.77;;;9.30;;
8411;SDS011;4243;49.296;11.348;2023-07-08T15:33:51;110.07;;;7.73;;
8411;SDS011;4243;49.296;11.348;2023-07-08T15:36:19;110.37;;;7.80;;
8411;SDS011;4243;49.296;11.348;2023-07-08T15:38:47;108.47;;;4.20;;
8411;SDS011;4243;49.296;11.348;2023-07-08T15:43:53;108.50;;;2.90;;
8411;SDS011;4243;49.296;11.348;2023-07-08T15:46:25;109.60;;;4.10;;
8411;SDS011;4243;49.296;11.348;2023-07-08T15:49:25;112.10;;;7.60;;
8411;SDS011;4243;49.296;11.348;2023-07-08T15:51:59;111.70;;;6.30;;
8411;SDS011;4243;49.296;11.348;2023-07-08T15:54:26;111.40;;;5.87;;
8411;SDS011;4243;49.296;11.348;2023-07-08T15:56:54;111.23;;;5.60;;
8411;SDS011;4243;49.296;11.348;2023-07-08T15:59:31;111.13;;;6.23;;
8411;SDS011;4243;49.296;11.348;2023-07-08T16:02:00;111.17;;;6.17;;
8411;SDS011;4243;49.296;11.348;2023-07-08T16:04:52;111.07;;;6.40;;
8411;SDS011;4243;49.296;11.348;2023-07-08T16:07:20;110.80;;;6.17;;
8411;SDS011;4243;49.296;11.348;2023-07-08T16:09:47;111.07;;;6.27;;
8411;SDS011;4243;49.296;11.348;2023-07-08T16:12:16;111.57;;;5.70;;
8411;SDS011;4243;49.296;11.348;2023-07-08T16:14:48;111.97;;;6.70;;
8411;SDS011;4243;49.296;11.348;2023-07-08T16:17:16;113.57;;;9.60;;
8411;SDS011;4243;49.296;11.348;2023-07-08T16:19:44;114.67;;;10.40;;
8411;SDS011;4243;49.296;11.348;2023-07-08T16:22:11;114.53;;;10.97;;